Terminal Aerodrome Forecast
Issued by NWS

Current Version | Previous Version | Graphics & Text | Print | Product List | Glossary On
Versions: 1 2 3 4 5 6 7 8 9 10 11 12 13 14 15 16 17 18 19 20 21 22 23 24 25 26 27 28 29
381
FTUS41 KPBZ 281725
TAFHLG
TAF
KHLG 281725Z 2818/2918 19006KT P6SM SCT250
     FM290000 10004KT P6SM BKN250
     FM290600 16007KT P6SM VCSH OVC080
     FM291000 23007KT P6SM VCSH OVC015=

USA.gov is the U.S. government's official web portal to all federal, state and local government web resources and services.